sensor_id;sensor_type;location;lat;lon;timestamp;P1;durP1;ratioP1;P2;durP2;ratioP2
39128;SDS011;24864;49.940;19.770;2022-10-13T00:00:47;120.68;;;55.20;;
39128;SDS011;24864;49.940;19.770;2022-10-13T00:03:32;100.68;;;52.47;;
39128;SDS011;24864;49.940;19.770;2022-10-13T00:06:03;104.90;;;49.28;;
39128;SDS011;24864;49.940;19.770;2022-10-13T00:08:31;97.65;;;48.58;;
39128;SDS011;24864;49.940;19.770;2022-10-13T00:11:00;94.65;;;47.90;;
39128;SDS011;24864;49.940;19.770;2022-10-13T00:13:28;91.72;;;47.10;;
39128;SDS011;24864;49.940;19.770;2022-10-13T00:15:57;104.95;;;50.47;;
39128;SDS011;24864;49.940;19.770;2022-10-13T00:20:56;97.07;;;48.63;;
39128;SDS011;24864;49.940;19.770;2022-10-13T00:23:24;98.00;;;48.33;;
39128;SDS011;24864;49.940;19.770;2022-10-13T00:25:52;105.13;;;48.67;;
39128;SDS011;24864;49.940;19.770;2022-10-13T00:28:19;103.60;;;49.90;;
39128;SDS011;24864;49.940;19.770;2022-10-13T00:30:47;94.20;;;49.70;;
39128;SDS011;24864;49.940;19.770;2022-10-13T00:33:17;111.65;;;50.28;;
39128;SDS011;24864;49.940;19.770;2022-10-13T00:35:45;101.30;;;50.35;;
39128;SDS011;24864;49.940;19.770;2022-10-13T00:38:14;101.38;;;48.75;;
39128;SDS011;24864;49.940;19.770;2022-10-13T00:40:44;96.10;;;48.65;;
39128;SDS011;24864;49.940;19.770;2022-10-13T00:43:14;93.60;;;48.63;;
39128;SDS011;24864;49.940;19.770;2022-10-13T00:45:44;91.50;;;47.53;;
39128;SDS011;24864;49.940;19.770;2022-10-13T00:48:17;89.82;;;46.45;;
39128;SDS011;24864;49.940;19.770;2022-10-13T00:50:47;88.80;;;46.72;;
39128;SDS011;24864;49.940;19.770;2022-10-13T00:53:15;89.28;;;47.85;;
39128;SDS011;24864;49.940;19.770;2022-10-13T00:55:45;89.40;;;46.30;;
39128;SDS011;24864;49.940;19.770;2022-10-13T00:58:14;87.47;;;46.22;;
39128;SDS011;24864;49.940;19.770;2022-10-13T01:00:45;95.88;;;47.33;;
39128;SDS011;24864;49.940;19.770;2022-10-13T01:03:17;94.25;;;46.38;;
39128;SDS011;24864;49.940;19.770;2022-10-13T01:05:47;89.32;;;47.05;;
39128;SDS011;24864;49.940;19.770;2022-10-13T01:08:16;93.47;;;46.00;;
39128;SDS011;24864;49.940;19.770;2022-10-13T01:10:48;90.95;;;46.50;;
39128;SDS011;24864;49.940;19.770;2022-10-13T01:13:26;86.32;;;45.25;;
39128;SDS011;24864;49.940;19.770;2022-10-13T01:16:02;83.55;;;43.30;;
39128;SDS011;24864;49.940;19.770;2022-10-13T01:18:41;80.25;;;45.40;;
39128;SDS011;24864;49.940;19.770;2022-10-13T01:21:17;79.85;;;43.03;;
39128;SDS011;24864;49.940;19.770;2022-10-13T01:24:02;87.72;;;43.58;;
39128;SDS011;24864;49.940;19.770;2022-10-13T01:26:55;75.53;;;42.97;;
39128;SDS011;24864;49.940;19.770;2022-10-13T01:29:51;87.00;;;42.70;;
39128;SDS011;24864;49.940;19.770;2022-10-13T01:32:30;91.47;;;41.85;;
39128;SDS011;24864;49.940;19.770;2022-10-13T01:35:07;83.03;;;42.17;;
39128;SDS011;24864;49.940;19.770;2022-10-13T01:40:11;60.22;;;30.48;;
39128;SDS011;24864;49.940;19.770;2022-10-13T01:42:47;78.55;;;40.67;;
39128;SDS011;24864;49.940;19.770;2022-10-13T01:45:23;81.97;;;42.17;;
39128;SDS011;24864;49.940;19.770;2022-10-13T01:47:56;85.47;;;41.72;;
39128;SDS011;24864;49.940;19.770;2022-10-13T01:50:26;86.80;;;43.47;;
39128;SDS011;24864;49.940;19.770;2022-10-13T01:52:54;85.53;;;40.72;;
39128;SDS011;24864;49.940;19.770;2022-10-13T01:55:25;65.82;;;38.13;;
39128;SDS011;24864;49.940;19.770;2022-10-13T01:57:54;72.50;;;41.92;;
39128;SDS011;24864;49.940;19.770;2022-10-13T02:00:23;79.50;;;42.40;;
39128;SDS011;24864;49.940;19.770;2022-10-13T02:02:56;88.07;;;44.15;;
39128;SDS011;24864;49.940;19.770;2022-10-13T02:05:35;77.28;;;39.75;;
39128;SDS011;24864;49.940;19.770;2022-10-13T02:08:17;80.63;;;39.97;;
39128;SDS011;24864;49.940;19.770;2022-10-13T02:10:51;76.95;;;38.97;;
39128;SDS011;24864;49.940;19.770;2022-10-13T02:13:25;77.68;;;37.10;;
39128;SDS011;24864;49.940;19.770;2022-10-13T02:18:28;79.55;;;36.72;;
39128;SDS011;24864;49.940;19.770;2022-10-13T02:21:00;74.65;;;36.95;;
39128;SDS011;24864;49.940;19.770;2022-10-13T02:23:29;73.68;;;37.33;;
39128;SDS011;24864;49.940;19.770;2022-10-13T02:25:58;71.43;;;37.33;;
39128;SDS011;24864;49.940;19.770;2022-10-13T02:28:26;75.53;;;38.17;;
39128;SDS011;24864;49.940;19.770;2022-10-13T02:30:55;75.93;;;37.92;;
39128;SDS011;24864;49.940;19.770;2022-10-13T02:33:24;70.32;;;37.10;;
39128;SDS011;24864;49.940;19.770;2022-10-13T02:35:52;72.13;;;36.95;;
39128;SDS011;24864;49.940;19.770;2022-10-13T02:38:21;66.68;;;35.67;;
39128;SDS011;24864;49.940;19.770;2022-10-13T02:40:49;70.85;;;36.28;;
39128;SDS011;24864;49.940;19.770;2022-10-13T02:43:17;70.60;;;38.95;;
39128;SDS011;24864;49.940;19.770;2022-10-13T02:45:45;74.82;;;39.38;;
39128;SDS011;24864;49.940;19.770;2022-10-13T02:48:13;73.68;;;37.30;;
39128;SDS011;24864;49.940;19.770;2022-10-13T02:50:42;73.38;;;36.97;;
39128;SDS011;24864;49.940;19.770;2022-10-13T02:53:10;69.72;;;35.25;;
39128;SDS011;24864;49.940;19.770;2022-10-13T02:55:38;70.40;;;38.65;;
39128;SDS011;24864;49.940;19.770;2022-10-13T02:58:06;72.13;;;37.40;;
39128;SDS011;24864;49.940;19.770;2022-10-13T03:00:34;72.13;;;36.90;;
39128;SDS011;24864;49.940;19.770;2022-10-13T03:03:03;80.82;;;40.30;;
39128;SDS011;24864;49.940;19.770;2022-10-13T03:05:32;81.05;;;38.40;;
39128;SDS011;24864;49.940;19.770;2022-10-13T03:08:01;69.72;;;36.55;;
39128;SDS011;24864;49.940;19.770;2022-10-13T03:10:29;72.40;;;36.90;;
39128;SDS011;24864;49.940;19.770;2022-10-13T03:12:57;82.13;;;37.50;;
39128;SDS011;24864;49.940;19.770;2022-10-13T03:15:25;69.03;;;35.22;;
39128;SDS011;24864;49.940;19.770;2022-10-13T03:17:53;70.55;;;36.00;;
39128;SDS011;24864;49.940;19.770;2022-10-13T03:20:21;77.93;;;36.72;;
39128;SDS011;24864;49.940;19.770;2022-10-13T03:22:49;72.93;;;36.08;;
39128;SDS011;24864;49.940;19.770;2022-10-13T03:25:19;78.32;;;38.22;;
39128;SDS011;24864;49.940;19.770;2022-10-13T03:27:47;71.05;;;35.50;;
39128;SDS011;24864;49.940;19.770;2022-10-13T03:30:15;78.82;;;38.53;;
39128;SDS011;24864;49.940;19.770;2022-10-13T03:32:43;75.30;;;36.70;;
39128;SDS011;24864;49.940;19.770;2022-10-13T03:35:11;76.70;;;38.65;;
39128;SDS011;24864;49.940;19.770;2022-10-13T03:37:39;70.72;;;35.28;;
39128;SDS011;24864;49.940;19.770;2022-10-13T03:40:07;70.05;;;36.50;;
39128;SDS011;24864;49.940;19.770;2022-10-13T03:42:37;64.70;;;34.90;;
39128;SDS011;24864;49.940;19.770;2022-10-13T03:45:06;66.57;;;34.47;;
39128;SDS011;24864;49.940;19.770;2022-10-13T03:47:36;63.40;;;33.83;;
39128;SDS011;24864;49.940;19.770;2022-10-13T03:50:04;67.30;;;34.83;;
39128;SDS011;24864;49.940;19.770;2022-10-13T03:52:33;69.18;;;35.22;;
39128;SDS011;24864;49.940;19.770;2022-10-13T03:55:01;95.35;;;35.55;;
39128;SDS011;24864;49.940;19.770;2022-10-13T03:57:29;94.47;;;34.17;;
39128;SDS011;24864;49.940;19.770;2022-10-13T03:59:58;61.78;;;33.05;;
39128;SDS011;24864;49.940;19.770;2022-10-13T04:02:27;58.97;;;31.25;;
39128;SDS011;24864;49.940;19.770;2022-10-13T04:04:55;68.45;;;35.58;;
39128;SDS011;24864;49.940;19.770;2022-10-13T04:07:23;67.03;;;36.80;;
39128;SDS011;24864;49.940;19.770;2022-10-13T04:09:50;74.22;;;34.95;;
39128;SDS011;24864;49.940;19.770;2022-10-13T04:12:18;68.15;;;35.13;;
39128;SDS011;24864;49.940;19.770;2022-10-13T04:14:46;56.75;;;32.13;;
39128;SDS011;24864;49.940;19.770;2022-10-13T04:17:16;69.72;;;34.85;;
39128;SDS011;24864;49.940;19.770;2022-10-13T04:19:44;64.18;;;35.60;;
39128;SDS011;24864;49.940;19.770;2022-10-13T04:22:12;61.75;;;34.58;;
39128;SDS011;24864;49.940;19.770;2022-10-13T04:24:39;63.33;;;35.45;;
39128;SDS011;24864;49.940;19.770;2022-10-13T04:27:07;69.43;;;35.38;;
39128;SDS011;24864;49.940;19.770;2022-10-13T04:29:35;69.15;;;34.63;;
39128;SDS011;24864;49.940;19.770;2022-10-13T04:32:04;64.53;;;35.38;;
39128;SDS011;24864;49.940;19.770;2022-10-13T04:34:33;110.28;;;37.13;;
39128;SDS011;24864;49.940;19.770;2022-10-13T04:37:01;71.80;;;32.10;;
39128;SDS011;24864;49.940;19.770;2022-10-13T04:39:28;50.80;;;29.20;;
39128;SDS011;24864;49.940;19.770;2022-10-13T04:41:56;68.32;;;28.95;;
39128;SDS011;24864;49.940;19.770;2022-10-13T04:44:25;51.47;;;28.42;;
39128;SDS011;24864;49.940;19.770;2022-10-13T04:46:53;51.95;;;27.90;;
39128;SDS011;24864;49.940;19.770;2022-10-13T04:49:21;54.10;;;28.50;;
39128;SDS011;24864;49.940;19.770;2022-10-13T04:51:50;59.63;;;30.50;;
39128;SDS011;24864;49.940;19.770;2022-10-13T04:54:18;59.22;;;30.90;;
39128;SDS011;24864;49.940;19.770;2022-10-13T04:56:45;62.78;;;32.72;;
39128;SDS011;24864;49.940;19.770;2022-10-13T04:59:13;62.83;;;32.50;;
39128;SDS011;24864;49.940;19.770;2022-10-13T05:01:42;63.67;;;31.40;;
39128;SDS011;24864;49.940;19.770;2022-10-13T05:04:10;59.10;;;31.35;;
39128;SDS011;24864;49.940;19.770;2022-10-13T05:06:38;68.13;;;34.13;;
39128;SDS011;24864;49.940;19.770;2022-10-13T05:09:29;82.00;;;35.15;;
39128;SDS011;24864;49.940;19.770;2022-10-13T05:11:57;78.57;;;34.33;;
39128;SDS011;24864;49.940;19.770;2022-10-13T05:14:24;71.22;;;34.72;;
39128;SDS011;24864;49.940;19.770;2022-10-13T05:16:52;69.68;;;35.63;;
39128;SDS011;24864;49.940;19.770;2022-10-13T05:19:20;76.80;;;35.58;;
39128;SDS011;24864;49.940;19.770;2022-10-13T05:21:48;67.85;;;33.95;;
39128;SDS011;24864;49.940;19.770;2022-10-13T05:24:16;67.97;;;34.95;;
39128;SDS011;24864;49.940;19.770;2022-10-13T05:26:48;65.90;;;35.72;;
39128;SDS011;24864;49.940;19.770;2022-10-13T05:29:16;70.32;;;36.00;;
39128;SDS011;24864;49.940;19.770;2022-10-13T05:31:44;65.22;;;33.92;;
39128;SDS011;24864;49.940;19.770;2022-10-13T05:34:12;63.63;;;33.75;;
39128;SDS011;24864;49.940;19.770;2022-10-13T05:36:40;64.30;;;33.28;;
39128;SDS011;24864;49.940;19.770;2022-10-13T05:39:08;64.90;;;34.40;;
39128;SDS011;24864;49.940;19.770;2022-10-13T05:41:37;63.92;;;35.75;;
39128;SDS011;24864;49.940;19.770;2022-10-13T05:44:07;67.22;;;34.58;;
39128;SDS011;24864;49.940;19.770;2022-10-13T05:46:36;66.65;;;34.92;;
39128;SDS011;24864;49.940;19.770;2022-10-13T05:49:04;55.60;;;32.58;;
39128;SDS011;24864;49.940;19.770;2022-10-13T05:51:33;59.70;;;32.70;;
39128;SDS011;24864;49.940;19.770;2022-10-13T05:54:05;60.20;;;32.30;;
39128;SDS011;24864;49.940;19.770;2022-10-13T05:56:37;55.97;;;32.55;;
39128;SDS011;24864;49.940;19.770;2022-10-13T05:59:11;58.72;;;32.40;;
39128;SDS011;24864;49.940;19.770;2022-10-13T06:01:42;52.33;;;29.08;;
39128;SDS011;24864;49.940;19.770;2022-10-13T06:04:12;56.17;;;30.30;;
39128;SDS011;24864;49.940;19.770;2022-10-13T06:06:43;51.50;;;29.17;;
39128;SDS011;24864;49.940;19.770;2022-10-13T06:09:11;49.42;;;28.10;;
39128;SDS011;24864;49.940;19.770;2022-10-13T06:11:40;52.17;;;28.52;;
39128;SDS011;24864;49.940;19.770;2022-10-13T06:14:09;49.92;;;28.50;;
39128;SDS011;24864;49.940;19.770;2022-10-13T06:16:37;51.42;;;27.23;;
39128;SDS011;24864;49.940;19.770;2022-10-13T06:19:06;52.35;;;27.35;;
39128;SDS011;24864;49.940;19.770;2022-10-13T06:21:34;50.42;;;27.52;;
39128;SDS011;24864;49.940;19.770;2022-10-13T06:24:02;45.45;;;25.00;;
39128;SDS011;24864;49.940;19.770;2022-10-13T06:26:30;51.47;;;27.08;;
39128;SDS011;24864;49.940;19.770;2022-10-13T06:28:58;46.75;;;26.35;;
39128;SDS011;24864;49.940;19.770;2022-10-13T06:31:29;55.22;;;29.15;;
39128;SDS011;24864;49.940;19.770;2022-10-13T06:33:57;46.75;;;28.45;;
39128;SDS011;24864;49.940;19.770;2022-10-13T06:36:25;47.83;;;28.63;;
39128;SDS011;24864;49.940;19.770;2022-10-13T06:38:54;49.88;;;29.25;;
39128;SDS011;24864;49.940;19.770;2022-10-13T06:41:22;47.83;;;27.67;;
39128;SDS011;24864;49.940;19.770;2022-10-13T06:43:50;58.13;;;30.80;;
39128;SDS011;24864;49.940;19.770;2022-10-13T06:46:18;49.58;;;29.65;;
39128;SDS011;24864;49.940;19.770;2022-10-13T06:48:48;49.08;;;27.73;;
39128;SDS011;24864;49.940;19.770;2022-10-13T06:51:17;48.78;;;26.00;;
39128;SDS011;24864;49.940;19.770;2022-10-13T06:53:45;36.03;;;23.20;;
39128;SDS011;24864;49.940;19.770;2022-10-13T06:56:13;37.58;;;21.65;;
39128;SDS011;24864;49.940;19.770;2022-10-13T06:58:41;32.58;;;22.05;;
39128;SDS011;24864;49.940;19.770;2022-10-13T07:01:10;33.08;;;22.30;;
39128;SDS011;24864;49.940;19.770;2022-10-13T07:03:39;31.88;;;21.23;;
39128;SDS011;24864;49.940;19.770;2022-10-13T07:06:08;34.47;;;20.83;;
39128;SDS011;24864;49.940;19.770;2022-10-13T07:08:36;36.15;;;21.02;;
39128;SDS011;24864;49.940;19.770;2022-10-13T07:11:05;33.58;;;21.08;;
39128;SDS011;24864;49.940;19.770;2022-10-13T07:13:41;33.30;;;21.05;;
39128;SDS011;24864;49.940;19.770;2022-10-13T07:16:13;32.42;;;21.15;;
39128;SDS011;24864;49.940;19.770;2022-10-13T07:18:41;36.78;;;20.67;;
39128;SDS011;24864;49.940;19.770;2022-10-13T07:21:10;38.17;;;23.08;;
39128;SDS011;24864;49.940;19.770;2022-10-13T07:23:38;40.58;;;23.60;;
39128;SDS011;24864;49.940;19.770;2022-10-13T07:26:06;40.85;;;23.42;;
39128;SDS011;24864;49.940;19.770;2022-10-13T07:28:35;40.88;;;23.52;;
39128;SDS011;24864;49.940;19.770;2022-10-13T07:31:05;44.97;;;29.02;;
39128;SDS011;24864;49.940;19.770;2022-10-13T07:33:34;46.75;;;29.27;;
39128;SDS011;24864;49.940;19.770;2022-10-13T07:36:03;46.35;;;30.13;;
39128;SDS011;24864;49.940;19.770;2022-10-13T07:38:32;46.55;;;29.23;;
39128;SDS011;24864;49.940;19.770;2022-10-13T07:41:00;54.33;;;30.95;;
39128;SDS011;24864;49.940;19.770;2022-10-13T07:43:29;53.40;;;30.23;;
39128;SDS011;24864;49.940;19.770;2022-10-13T07:45:58;56.20;;;32.38;;
39128;SDS011;24864;49.940;19.770;2022-10-13T07:48:27;53.13;;;33.30;;
39128;SDS011;24864;49.940;19.770;2022-10-13T07:50:55;53.53;;;34.40;;
39128;SDS011;24864;49.940;19.770;2022-10-13T07:53:23;57.33;;;33.67;;
39128;SDS011;24864;49.940;19.770;2022-10-13T07:55:52;48.92;;;28.77;;
39128;SDS011;24864;49.940;19.770;2022-10-13T07:58:20;47.00;;;29.25;;
39128;SDS011;24864;49.940;19.770;2022-10-13T08:00:54;47.15;;;29.27;;
39128;SDS011;24864;49.940;19.770;2022-10-13T08:03:22;41.78;;;25.10;;
39128;SDS011;24864;49.940;19.770;2022-10-13T08:05:50;38.50;;;23.85;;
39128;SDS011;24864;49.940;19.770;2022-10-13T08:08:18;35.92;;;23.02;;
39128;SDS011;24864;49.940;19.770;2022-10-13T08:10:46;31.10;;;21.13;;
39128;SDS011;24864;49.940;19.770;2022-10-13T08:13:16;25.02;;;18.02;;
39128;SDS011;24864;49.940;19.770;2022-10-13T08:15:44;43.03;;;22.98;;
39128;SDS011;24864;49.940;19.770;2022-10-13T08:18:13;37.95;;;24.25;;
39128;SDS011;24864;49.940;19.770;2022-10-13T08:20:41;47.47;;;30.27;;
39128;SDS011;24864;49.940;19.770;2022-10-13T08:23:10;51.75;;;30.63;;
39128;SDS011;24864;49.940;19.770;2022-10-13T08:25:39;52.15;;;33.03;;
39128;SDS011;24864;49.940;19.770;2022-10-13T08:28:09;51.35;;;30.23;;
39128;SDS011;24864;49.940;19.770;2022-10-13T08:30:45;56.35;;;34.08;;
39128;SDS011;24864;49.940;19.770;2022-10-13T08:33:13;56.85;;;33.58;;
39128;SDS011;24864;49.940;19.770;2022-10-13T08:35:41;53.38;;;33.72;;
39128;SDS011;24864;49.940;19.770;2022-10-13T08:38:09;59.70;;;33.08;;
39128;SDS011;24864;49.940;19.770;2022-10-13T08:40:37;52.45;;;33.92;;
39128;SDS011;24864;49.940;19.770;2022-10-13T08:43:05;54.20;;;32.85;;
39128;SDS011;24864;49.940;19.770;2022-10-13T08:45:35;56.13;;;33.55;;
39128;SDS011;24864;49.940;19.770;2022-10-13T08:48:10;46.28;;;28.55;;
39128;SDS011;24864;49.940;19.770;2022-10-13T08:50:43;43.35;;;28.42;;
39128;SDS011;24864;49.940;19.770;2022-10-13T08:53:17;37.88;;;24.35;;
39128;SDS011;24864;49.940;19.770;2022-10-13T08:55:50;38.70;;;21.35;;
39128;SDS011;24864;49.940;19.770;2022-10-13T08:58:21;51.50;;;31.67;;
39128;SDS011;24864;49.940;19.770;2022-10-13T09:00:54;43.78;;;29.02;;
39128;SDS011;24864;49.940;19.770;2022-10-13T09:03:28;39.63;;;25.98;;
39128;SDS011;24864;49.940;19.770;2022-10-13T09:05:59;47.33;;;27.92;;
39128;SDS011;24864;49.940;19.770;2022-10-13T09:08:38;40.33;;;26.90;;
39128;SDS011;24864;49.940;19.770;2022-10-13T09:11:10;40.03;;;25.92;;
39128;SDS011;24864;49.940;19.770;2022-10-13T09:13:38;39.63;;;26.42;;
39128;SDS011;24864;49.940;19.770;2022-10-13T09:16:06;32.00;;;21.33;;
39128;SDS011;24864;49.940;19.770;2022-10-13T09:18:36;38.20;;;22.73;;
39128;SDS011;24864;49.940;19.770;2022-10-13T09:21:08;38.33;;;24.25;;
39128;SDS011;24864;49.940;19.770;2022-10-13T09:23:48;29.55;;;19.80;;
39128;SDS011;24864;49.940;19.770;2022-10-13T09:26:18;36.10;;;19.42;;
39128;SDS011;24864;49.940;19.770;2022-10-13T09:28:49;28.52;;;19.60;;
39128;SDS011;24864;49.940;19.770;2022-10-13T09:31:18;28.08;;;20.58;;
39128;SDS011;24864;49.940;19.770;2022-10-13T09:34:05;43.17;;;26.15;;
39128;SDS011;24864;49.940;19.770;2022-10-13T09:36:54;45.78;;;28.23;;
39128;SDS011;24864;49.940;19.770;2022-10-13T09:39:22;45.37;;;28.20;;
39128;SDS011;24864;49.940;19.770;2022-10-13T09:41:50;43.85;;;28.40;;
39128;SDS011;24864;49.940;19.770;2022-10-13T09:44:25;38.80;;;26.85;;
39128;SDS011;24864;49.940;19.770;2022-10-13T09:46:56;30.85;;;21.70;;
39128;SDS011;24864;49.940;19.770;2022-10-13T09:49:29;30.25;;;21.25;;
39128;SDS011;24864;49.940;19.770;2022-10-13T09:52:01;39.22;;;25.80;;
39128;SDS011;24864;49.940;19.770;2022-10-13T09:54:36;33.00;;;22.27;;
39128;SDS011;24864;49.940;19.770;2022-10-13T09:57:10;37.28;;;24.67;;
39128;SDS011;24864;49.940;19.770;2022-10-13T09:59:44;38.70;;;26.63;;
39128;SDS011;24864;49.940;19.770;2022-10-13T10:02:18;36.78;;;24.95;;
39128;SDS011;24864;49.940;19.770;2022-10-13T10:04:55;39.90;;;26.48;;
39128;SDS011;24864;49.940;19.770;2022-10-13T10:07:26;38.83;;;22.90;;
39128;SDS011;24864;49.940;19.770;2022-10-13T10:09:58;38.25;;;26.90;;
39128;SDS011;24864;49.940;19.770;2022-10-13T10:12:30;48.10;;;27.77;;
39128;SDS011;24864;49.940;19.770;2022-10-13T10:15:04;42.40;;;25.92;;
39128;SDS011;24864;49.940;19.770;2022-10-13T10:17:44;34.35;;;21.83;;
39128;SDS011;24864;49.940;19.770;2022-10-13T10:20:27;35.60;;;23.08;;
39128;SDS011;24864;49.940;19.770;2022-10-13T10:23:10;44.42;;;28.25;;
39128;SDS011;24864;49.940;19.770;2022-10-13T10:25:42;31.42;;;22.00;;
39128;SDS011;24864;49.940;19.770;2022-10-13T10:28:20;28.63;;;19.10;;
39128;SDS011;24864;49.940;19.770;2022-10-13T10:31:04;28.90;;;19.63;;
39128;SDS011;24864;49.940;19.770;2022-10-13T10:33:40;30.52;;;19.80;;
39128;SDS011;24864;49.940;19.770;2022-10-13T10:36:18;27.23;;;19.30;;
39128;SDS011;24864;49.940;19.770;2022-10-13T10:38:51;35.85;;;21.75;;
39128;SDS011;24864;49.940;19.770;2022-10-13T10:41:25;28.00;;;18.58;;
39128;SDS011;24864;49.940;19.770;2022-10-13T10:44:06;27.00;;;18.20;;
39128;SDS011;24864;49.940;19.770;2022-10-13T10:46:38;25.92;;;18.85;;
39128;SDS011;24864;49.940;19.770;2022-10-13T10:49:11;30.17;;;20.23;;
39128;SDS011;24864;49.940;19.770;2022-10-13T10:51:44;28.70;;;19.20;;
39128;SDS011;24864;49.940;19.770;2022-10-13T10:54:21;29.20;;;17.08;;
39128;SDS011;24864;49.940;19.770;2022-10-13T10:56:59;26.48;;;17.38;;
39128;SDS011;24864;49.940;19.770;2022-10-13T10:59:38;24.88;;;18.45;;
39128;SDS011;24864;49.940;19.770;2022-10-13T11:02:23;25.02;;;17.35;;
39128;SDS011;24864;49.940;19.770;2022-10-13T11:05:04;26.45;;;18.02;;
39128;SDS011;24864;49.940;19.770;2022-10-13T11:10:25;27.33;;;20.27;;
39128;SDS011;24864;49.940;19.770;2022-10-13T11:13:06;29.48;;;19.80;;
39128;SDS011;24864;49.940;19.770;2022-10-13T11:15:43;32.13;;;20.77;;
39128;SDS011;24864;49.940;19.770;2022-10-13T11:21:18;31.60;;;21.23;;
39128;SDS011;24864;49.940;19.770;2022-10-13T11:23:48;28.08;;;18.30;;
39128;SDS011;24864;49.940;19.770;2022-10-13T11:29:16;28.67;;;19.98;;
39128;SDS011;24864;49.940;19.770;2022-10-13T11:31:47;33.08;;;18.73;;
39128;SDS011;24864;49.940;19.770;2022-10-13T11:34:24;28.70;;;18.08;;
39128;SDS011;24864;49.940;19.770;2022-10-13T11:36:57;33.83;;;17.90;;
39128;SDS011;24864;49.940;19.770;2022-10-13T11:42:34;26.02;;;16.85;;
39128;SDS011;24864;49.940;19.770;2022-10-13T11:45:17;34.22;;;19.02;;
39128;SDS011;24864;49.940;19.770;2022-10-13T11:48:17;25.35;;;17.00;;
39128;SDS011;24864;49.940;19.770;2022-10-13T11:51:08;24.48;;;15.90;;
39128;SDS011;24864;49.940;19.770;2022-10-13T11:53:49;33.53;;;15.73;;
39128;SDS011;24864;49.940;19.770;2022-10-13T11:56:30;24.55;;;16.63;;
39128;SDS011;24864;49.940;19.770;2022-10-13T11:59:16;27.10;;;16.02;;
39128;SDS011;24864;49.940;19.770;2022-10-13T12:01:46;23.20;;;15.57;;
39128;SDS011;24864;49.940;19.770;2022-10-13T12:04:14;24.23;;;16.00;;
39128;SDS011;24864;49.940;19.770;2022-10-13T12:06:42;28.13;;;16.52;;
39128;SDS011;24864;49.940;19.770;2022-10-13T12:09:15;27.70;;;16.50;;
39128;SDS011;24864;49.940;19.770;2022-10-13T12:11:45;23.10;;;15.48;;
39128;SDS011;24864;49.940;19.770;2022-10-13T12:14:25;24.48;;;15.27;;
39128;SDS011;24864;49.940;19.770;2022-10-13T12:16:58;23.17;;;14.18;;
39128;SDS011;24864;49.940;19.770;2022-10-13T12:19:29;20.27;;;12.98;;
39128;SDS011;24864;49.940;19.770;2022-10-13T12:21:58;21.25;;;13.18;;
39128;SDS011;24864;49.940;19.770;2022-10-13T12:24:28;25.45;;;13.45;;
39128;SDS011;24864;49.940;19.770;2022-10-13T12:26:57;26.73;;;12.77;;
39128;SDS011;24864;49.940;19.770;2022-10-13T12:29:27;16.92;;;11.63;;
39128;SDS011;24864;49.940;19.770;2022-10-13T12:32:02;21.77;;;12.43;;
39128;SDS011;24864;49.940;19.770;2022-10-13T12:34:44;20.55;;;12.90;;
39128;SDS011;24864;49.940;19.770;2022-10-13T12:37:13;22.42;;;11.30;;
39128;SDS011;24864;49.940;19.770;2022-10-13T12:39:51;29.65;;;12.70;;
39128;SDS011;24864;49.940;19.770;2022-10-13T12:42:26;19.42;;;12.93;;
39128;SDS011;24864;49.940;19.770;2022-10-13T12:44:58;18.27;;;12.35;;
39128;SDS011;24864;49.940;19.770;2022-10-13T12:50:21;16.02;;;11.90;;
39128;SDS011;24864;49.940;19.770;2022-10-13T12:53:02;17.05;;;10.57;;
39128;SDS011;24864;49.940;19.770;2022-10-13T12:55:47;16.15;;;11.02;;
39128;SDS011;24864;49.940;19.770;2022-10-13T13:01:03;17.60;;;11.38;;
39128;SDS011;24864;49.940;19.770;2022-10-13T13:03:52;22.02;;;11.65;;
39128;SDS011;24864;49.940;19.770;2022-10-13T13:06:27;25.77;;;11.50;;
39128;SDS011;24864;49.940;19.770;2022-10-13T13:14:50;15.95;;;11.27;;
39128;SDS011;24864;49.940;19.770;2022-10-13T13:17:23;17.27;;;11.25;;
39128;SDS011;24864;49.940;19.770;2022-10-13T13:20:23;19.85;;;10.85;;
39128;SDS011;24864;49.940;19.770;2022-10-13T13:22:54;21.23;;;11.48;;
39128;SDS011;24864;49.940;19.770;2022-10-13T13:25:22;13.82;;;10.32;;
39128;SDS011;24864;49.940;19.770;2022-10-13T13:27:51;17.10;;;11.32;;
39128;SDS011;24864;49.940;19.770;2022-10-13T13:30:20;15.13;;;9.70;;
39128;SDS011;24864;49.940;19.770;2022-10-13T13:32:51;16.45;;;9.60;;
39128;SDS011;24864;49.940;19.770;2022-10-13T13:35:18;17.63;;;10.85;;
39128;SDS011;24864;49.940;19.770;2022-10-13T13:37:46;14.52;;;10.32;;
39128;SDS011;24864;49.940;19.770;2022-10-13T13:40:17;23.30;;;12.95;;
39128;SDS011;24864;49.940;19.770;2022-10-13T13:42:46;20.77;;;14.55;;
39128;SDS011;24864;49.940;19.770;2022-10-13T13:45:14;22.55;;;12.10;;
39128;SDS011;24864;49.940;19.770;2022-10-13T13:47:44;35.13;;;23.23;;
39128;SDS011;24864;49.940;19.770;2022-10-13T13:50:14;73.78;;;48.30;;
39128;SDS011;24864;49.940;19.770;2022-10-13T13:52:43;27.65;;;18.88;;
39128;SDS011;24864;49.940;19.770;2022-10-13T13:55:12;19.23;;;10.50;;
39128;SDS011;24864;49.940;19.770;2022-10-13T13:57:41;31.23;;;16.85;;
39128;SDS011;24864;49.940;19.770;2022-10-13T14:00:09;35.60;;;15.68;;
39128;SDS011;24864;49.940;19.770;2022-10-13T14:02:39;22.00;;;11.20;;
39128;SDS011;24864;49.940;19.770;2022-10-13T14:05:08;34.05;;;19.95;;
39128;SDS011;24864;49.940;19.770;2022-10-13T14:07:39;45.70;;;26.73;;
39128;SDS011;24864;49.940;19.770;2022-10-13T14:10:07;45.50;;;26.45;;
39128;SDS011;24864;49.940;19.770;2022-10-13T14:12:36;15.88;;;10.80;;
39128;SDS011;24864;49.940;19.770;2022-10-13T14:15:05;17.02;;;10.02;;
39128;SDS011;24864;49.940;19.770;2022-10-13T14:17:33;15.35;;;9.98;;
39128;SDS011;24864;49.940;19.770;2022-10-13T14:20:02;13.38;;;9.15;;
39128;SDS011;24864;49.940;19.770;2022-10-13T14:22:30;17.05;;;9.07;;
39128;SDS011;24864;49.940;19.770;2022-10-13T14:24:59;14.20;;;7.97;;
39128;SDS011;24864;49.940;19.770;2022-10-13T14:27:27;19.00;;;8.32;;
39128;SDS011;24864;49.940;19.770;2022-10-13T14:29:56;20.67;;;8.73;;
39128;SDS011;24864;49.940;19.770;2022-10-13T14:32:24;15.40;;;8.27;;
39128;SDS011;24864;49.940;19.770;2022-10-13T14:34:52;12.98;;;8.20;;
39128;SDS011;24864;49.940;19.770;2022-10-13T14:37:20;12.57;;;8.13;;
39128;SDS011;24864;49.940;19.770;2022-10-13T14:39:50;26.77;;;13.05;;
39128;SDS011;24864;49.940;19.770;2022-10-13T14:42:19;52.65;;;25.17;;
39128;SDS011;24864;49.940;19.770;2022-10-13T14:44:47;87.70;;;44.20;;
39128;SDS011;24864;49.940;19.770;2022-10-13T14:47:16;36.60;;;20.13;;
39128;SDS011;24864;49.940;19.770;2022-10-13T14:49:44;26.98;;;15.18;;
39128;SDS011;24864;49.940;19.770;2022-10-13T14:52:12;22.23;;;13.45;;
39128;SDS011;24864;49.940;19.770;2022-10-13T14:54:40;17.35;;;10.80;;
39128;SDS011;24864;49.940;19.770;2022-10-13T14:57:10;20.73;;;14.55;;
39128;SDS011;24864;49.940;19.770;2022-10-13T14:59:42;30.95;;;20.25;;
39128;SDS011;24864;49.940;19.770;2022-10-13T15:02:11;37.97;;;19.15;;